createdAt,value
2023-03-16T00:01:47.860Z,-3.30
2023-03-16T00:04:47.405Z,-3.40
2023-03-16T00:07:44.293Z,-3.40
2023-03-16T00:10:46.723Z,-3.40
2023-03-16T00:13:43.551Z,-3.50
2023-03-16T00:16:40.502Z,-3.40
2023-03-16T00:19:37.400Z,-3.40
2023-03-16T00:22:34.755Z,-3.60
2023-03-16T00:25:33.650Z,-3.60
2023-03-16T00:28:35.279Z,-3.60
2023-03-16T00:31:33.934Z,-3.60
2023-03-16T00:34:34.687Z,-3.60
2023-03-16T00:37:36.949Z,-3.60
2023-03-16T00:40:33.919Z,-3.70
2023-03-16T00:43:41.004Z,-3.70
2023-03-16T00:46:38.062Z,-3.70
2023-03-16T00:49:36.476Z,-3.70
2023-03-16T00:52:35.346Z,-3.70
2023-03-16T00:55:32.406Z,-3.80
2023-03-16T00:58:29.343Z,-3.70
2023-03-16T01:01:27.452Z,-3.60
2023-03-16T01:04:24.429Z,-3.60
2023-03-16T01:07:21.985Z,-3.70
2023-03-16T01:10:18.902Z,-3.70
2023-03-16T01:13:15.730Z,-3.70
2023-03-16T01:16:13.024Z,-3.80
2023-03-16T01:19:09.892Z,-3.90
2023-03-16T01:22:07.795Z,-3.90
2023-03-16T01:25:05.647Z,-3.90
2023-03-16T01:28:02.474Z,-3.80
2023-03-16T01:31:03.900Z,-3.90
2023-03-16T01:34:04.144Z,-4.00
2023-03-16T01:37:01.684Z,-3.80
2023-03-16T01:39:58.571Z,-3.70
2023-03-16T01:43:04.758Z,-3.80
2023-03-16T01:46:07.484Z,-3.90
2023-03-16T01:49:08.026Z,-3.90
2023-03-16T01:52:08.771Z,-3.90
2023-03-16T01:55:13.253Z,-3.90
2023-03-16T01:58:11.748Z,-3.80
2023-03-16T02:01:09.131Z,-3.80
2023-03-16T02:04:29.281Z,-3.90
2023-03-16T02:07:29.349Z,-3.90
2023-03-16T02:10:29.095Z,-4.00
2023-03-16T02:13:29.512Z,-4.00
2023-03-16T02:16:26.921Z,-4.10
2023-03-16T02:19:59.944Z,-4.10
2023-03-16T02:22:57.948Z,-4.10
2023-03-16T02:26:10.940Z,-4.20
2023-03-16T02:29:32.659Z,-4.20
2023-03-16T02:32:32.143Z,-4.20
2023-03-16T02:35:29.102Z,-4.20
2023-03-16T02:38:26.030Z,-4.20
2023-03-16T02:41:23.090Z,-4.20
2023-03-16T02:44:27.451Z,-4.20
2023-03-16T02:47:40.203Z,-4.30
2023-03-16T02:50:42.453Z,-4.30
2023-03-16T02:53:39.787Z,-4.30
2023-03-16T02:56:36.764Z,-4.50
2023-03-16T02:59:33.606Z,-4.40
2023-03-16T03:02:30.429Z,-4.40
2023-03-16T03:05:27.278Z,-4.20
2023-03-16T03:08:24.182Z,-4.30
2023-03-16T03:11:21.008Z,-4.30
2023-03-16T03:14:18.264Z,-4.20
2023-03-16T03:17:15.210Z,-4.10
2023-03-16T03:20:16.454Z,-4.20
2023-03-16T03:23:15.367Z,-4.10
2023-03-16T03:26:15.242Z,-4.10
2023-03-16T03:29:12.654Z,-4.10
2023-03-16T03:32:09.572Z,-4.20
2023-03-16T03:35:07.481Z,-4.20
2023-03-16T03:38:04.356Z,-4.20
2023-03-16T03:41:01.194Z,-4.20
2023-03-16T03:43:58.030Z,-4.10
2023-03-16T03:46:54.948Z,-4.20
2023-03-16T03:49:51.958Z,-4.20
2023-03-16T03:52:48.789Z,-4.20
2023-03-16T03:55:46.259Z,-4.20
2023-03-16T03:58:43.120Z,-4.10
2023-03-16T04:01:40.090Z,-4.30
2023-03-16T04:04:37.394Z,-4.30
2023-03-16T04:07:34.654Z,-4.30
2023-03-16T04:10:31.804Z,-4.40
2023-03-16T04:13:28.819Z,-4.40
2023-03-16T04:16:27.126Z,-4.40
2023-03-16T04:19:25.449Z,-4.30
2023-03-16T04:22:23.375Z,-4.40
2023-03-16T04:25:20.275Z,-4.40
2023-03-16T04:28:17.883Z,-4.40
2023-03-16T04:31:14.915Z,-4.50
2023-03-16T04:34:12.605Z,-4.50
2023-03-16T04:37:09.686Z,-4.50
2023-03-16T04:40:16.566Z,-4.50
2023-03-16T04:43:13.720Z,-4.50
2023-03-16T04:46:11.965Z,-4.40
2023-03-16T04:49:09.808Z,-4.50
2023-03-16T04:52:07.621Z,-4.50
2023-03-16T04:55:06.057Z,-4.50
2023-03-16T04:58:02.969Z,-4.50
2023-03-16T05:00:59.854Z,-4.50
2023-03-16T05:04:05.836Z,-4.50
2023-03-16T05:07:10.721Z,-4.50
2023-03-16T05:10:23.561Z,-4.60
2023-03-16T05:13:33.059Z,-4.60
2023-03-16T05:16:31.056Z,-4.60
2023-03-16T05:19:27.981Z,-4.50
2023-03-16T05:22:25.825Z,-4.40
2023-03-16T05:25:23.219Z,-4.50
2023-03-16T05:28:20.222Z,-4.50
2023-03-16T05:31:17.112Z,-4.50
2023-03-16T05:34:14.217Z,-4.60
2023-03-16T05:37:11.279Z,-4.60
2023-03-16T05:41:08.675Z,-4.50
2023-03-16T05:44:07.679Z,-4.50
2023-03-16T05:47:04.733Z,-4.40
2023-03-16T05:50:01.754Z,-4.40
2023-03-16T05:52:58.739Z,-4.40
2023-03-16T05:55:56.213Z,-4.30
2023-03-16T05:58:56.730Z,-4.30
2023-03-16T06:01:54.760Z,-4.30
2023-03-16T06:04:51.914Z,-4.30
2023-03-16T06:07:50.188Z,-4.30
2023-03-16T06:10:48.364Z,-4.20
2023-03-16T06:13:45.314Z,-4.20
2023-03-16T06:16:42.236Z,-4.20
2023-03-16T06:19:39.230Z,-4.20
2023-03-16T06:22:40.267Z,-4.30
2023-03-16T06:25:39.547Z,-4.20
2023-03-16T06:28:37.519Z,-4.10
2023-03-16T06:31:34.605Z,-4.00
2023-03-16T06:34:31.572Z,-4.00
2023-03-16T06:37:28.919Z,-4.00
2023-03-16T06:40:26.670Z,-3.90
2023-03-16T06:43:28.858Z,-3.90
2023-03-16T06:46:26.882Z,-3.90
2023-03-16T06:49:25.313Z,-3.90
2023-03-16T06:52:28.602Z,-3.90
2023-03-16T06:55:25.548Z,-3.80
2023-03-16T06:58:22.409Z,-3.70
2023-03-16T07:01:19.607Z,-3.70
2023-03-16T07:04:16.927Z,-3.60
2023-03-16T07:07:14.055Z,-3.60
2023-03-16T07:10:13.749Z,-3.60
2023-03-16T07:13:10.593Z,-3.60
2023-03-16T07:16:07.917Z,-3.50
2023-03-16T07:19:04.888Z,-3.40
2023-03-16T07:22:02.874Z,-3.30
2023-03-16T07:25:00.183Z,-3.30
2023-03-16T07:27:57.206Z,-3.20
2023-03-16T07:31:03.464Z,-3.10
2023-03-16T07:34:02.478Z,-3.10
2023-03-16T07:36:59.417Z,-3.00
2023-03-16T07:39:56.284Z,-3.00
2023-03-16T07:42:53.136Z,-2.80
2023-03-16T07:45:51.897Z,-2.80
2023-03-16T07:48:48.857Z,-2.80
2023-03-16T07:51:46.026Z,-2.70
2023-03-16T07:54:43.321Z,-2.60
2023-03-16T07:57:42.168Z,-2.60
2023-03-16T08:00:40.343Z,-2.40
2023-03-16T08:03:37.357Z,-2.10
2023-03-16T08:06:34.397Z,-0.40
2023-03-16T08:09:31.249Z,1.20
2023-03-16T08:12:28.100Z,2.20
2023-03-16T08:15:25.059Z,3.10
2023-03-16T08:18:23.860Z,4.00
2023-03-16T08:21:21.459Z,4.50
2023-03-16T08:24:18.353Z,4.70
2023-03-16T08:27:16.174Z,4.70
2023-03-16T08:30:14.227Z,5.20
2023-03-16T08:33:11.740Z,5.30
2023-03-16T08:36:12.388Z,5.30
2023-03-16T08:39:11.888Z,5.90
2023-03-16T08:42:09.624Z,5.90
2023-03-16T08:45:12.386Z,6.30
2023-03-16T08:48:12.934Z,6.50
2023-03-16T08:51:11.584Z,6.80
2023-03-16T08:54:08.471Z,6.40
2023-03-16T08:57:05.573Z,6.20
2023-03-16T09:00:09.742Z,6.60
2023-03-16T09:03:07.350Z,6.80
2023-03-16T09:06:07.858Z,7.00
2023-03-16T09:09:04.767Z,7.40
2023-03-16T09:12:02.412Z,6.10
2023-03-16T09:14:59.234Z,6.90
2023-03-16T09:17:58.020Z,6.80
2023-03-16T09:21:06.082Z,6.90
2023-03-16T09:24:02.915Z,7.40
2023-03-16T09:27:00.075Z,7.90
2023-03-16T09:29:59.447Z,7.80
2023-03-16T09:32:56.862Z,8.40
2023-03-16T09:35:54.125Z,7.70
2023-03-16T09:38:51.010Z,7.10
2023-03-16T09:42:10.146Z,7.00
2023-03-16T09:45:24.464Z,7.50
2023-03-16T09:48:22.294Z,7.50
2023-03-16T09:52:20.501Z,7.20
2023-03-16T09:55:35.832Z,6.90
2023-03-16T09:58:32.988Z,8.00
2023-03-16T10:01:48.344Z,8.00
2023-03-16T10:05:09.672Z,8.30
2023-03-16T10:08:20.864Z,8.60
2023-03-16T10:11:46.394Z,8.60
2023-03-16T10:15:10.319Z,7.70
2023-03-16T10:18:32.486Z,7.90
2023-03-16T10:21:38.725Z,9.70
2023-03-16T10:25:27.502Z,9.90
2023-03-16T10:28:28.231Z,11.00
2023-03-16T10:31:25.171Z,10.50
2023-03-16T10:34:23.596Z,9.90
2023-03-16T10:37:21.530Z,9.70
2023-03-16T10:40:20.361Z,8.90
2023-03-16T10:43:17.299Z,9.30
2023-03-16T10:46:15.201Z,10.00
2023-03-16T10:49:25.552Z,10.70
2023-03-16T10:52:44.504Z,10.20
2023-03-16T10:55:50.007Z,10.70
2023-03-16T10:58:47.369Z,10.80
2023-03-16T11:01:50.083Z,11.60
2023-03-16T11:04:47.984Z,11.60
2023-03-16T11:07:59.633Z,11.30
2023-03-16T11:11:08.397Z,11.50
2023-03-16T11:14:13.833Z,11.70
2023-03-16T11:17:34.828Z,11.10
2023-03-16T11:20:34.665Z,11.00
2023-03-16T11:23:37.317Z,11.70
2023-03-16T11:26:36.420Z,10.60
2023-03-16T11:29:59.476Z,11.30
2023-03-16T11:32:57.242Z,10.40
2023-03-16T11:36:12.862Z,10.90
2023-03-16T11:39:27.915Z,11.00
2023-03-16T11:42:39.406Z,11.40
2023-03-16T11:46:07.328Z,11.10
2023-03-16T11:49:37.000Z,11.30
2023-03-16T11:53:05.045Z,11.60
2023-03-16T11:56:13.269Z,10.50
2023-03-16T12:00:01.019Z,10.20
2023-03-16T12:03:38.304Z,9.70
2023-03-16T12:06:51.296Z,11.30
2023-03-16T12:10:24.077Z,11.90
2023-03-16T12:13:40.376Z,12.00
2023-03-16T12:17:11.047Z,12.00
2023-03-16T12:20:25.153Z,12.70
2023-03-16T12:23:43.972Z,11.50
2023-03-16T12:26:43.373Z,11.40
2023-03-16T12:29:58.717Z,11.20
2023-03-16T12:33:52.675Z,11.70
2023-03-16T12:37:24.152Z,11.70
2023-03-16T12:40:49.252Z,11.40
2023-03-16T12:44:06.617Z,11.10
2023-03-16T12:47:18.678Z,11.30
2023-03-16T12:50:19.055Z,11.20
2023-03-16T12:53:52.343Z,10.50
2023-03-16T12:56:51.702Z,10.70
2023-03-16T12:59:50.697Z,10.80
2023-03-16T13:02:56.048Z,11.20
2023-03-16T13:06:00.783Z,11.60
2023-03-16T13:09:01.045Z,11.30
2023-03-16T13:11:59.623Z,12.30
2023-03-16T13:14:57.066Z,11.40
2023-03-16T13:18:24.975Z,11.20
2023-03-16T13:21:42.641Z,11.30
2023-03-16T13:24:40.139Z,11.10
2023-03-16T13:27:40.154Z,11.70
2023-03-16T13:30:37.369Z,12.50
2023-03-16T13:33:40.712Z,11.90
2023-03-16T13:36:37.914Z,11.90
2023-03-16T13:39:34.781Z,11.80
2023-03-16T13:42:33.407Z,11.30
2023-03-16T13:45:37.383Z,11.10
2023-03-16T13:48:37.535Z,11.60
2023-03-16T13:51:36.568Z,11.70
2023-03-16T13:54:37.245Z,10.80
2023-03-16T13:57:40.582Z,10.50
2023-03-16T14:00:43.879Z,10.70
2023-03-16T14:03:42.280Z,11.00
2023-03-16T14:06:41.245Z,10.60
2023-03-16T14:09:38.265Z,10.70
2023-03-16T14:12:37.287Z,11.90
2023-03-16T14:15:36.187Z,11.30
2023-03-16T14:18:44.592Z,10.70
2023-03-16T14:21:45.861Z,11.00
2023-03-16T14:24:44.346Z,10.80
2023-03-16T14:27:41.042Z,10.00
2023-03-16T14:30:38.237Z,10.80
2023-03-16T14:33:40.008Z,10.40
2023-03-16T14:36:38.868Z,9.60
2023-03-16T14:39:35.935Z,9.60
2023-03-16T14:42:33.061Z,10.00
2023-03-16T14:45:37.316Z,9.80
2023-03-16T14:48:35.576Z,9.90
2023-03-16T14:51:34.158Z,9.30
2023-03-16T14:54:31.206Z,9.40
2023-03-16T14:57:28.049Z,9.20
2023-03-16T15:00:26.245Z,9.00
2023-03-16T15:03:35.550Z,8.60
2023-03-16T15:06:34.285Z,8.30
2023-03-16T15:09:43.800Z,8.80
2023-03-16T15:12:41.366Z,8.00
2023-03-16T15:15:40.937Z,7.10
2023-03-16T15:18:39.843Z,7.70
2023-03-16T15:21:36.712Z,7.40
2023-03-16T15:24:33.813Z,7.30
2023-03-16T15:27:36.296Z,7.30
2023-03-16T15:30:33.385Z,7.00
2023-03-16T15:33:30.702Z,7.00
2023-03-16T15:36:27.599Z,7.50
2023-03-16T15:39:25.207Z,7.00
2023-03-16T15:42:22.690Z,7.10
2023-03-16T15:45:22.659Z,7.10
2023-03-16T15:48:24.075Z,6.90
2023-03-16T15:51:27.913Z,6.90
2023-03-16T15:54:24.845Z,7.20
2023-03-16T15:57:21.678Z,6.90
2023-03-16T16:00:36.488Z,6.60
2023-03-16T16:03:33.982Z,6.20
2023-03-16T16:06:31.914Z,6.00
2023-03-16T16:09:28.752Z,6.20
2023-03-16T16:12:27.951Z,5.80
2023-03-16T16:15:37.037Z,6.00
2023-03-16T16:18:38.674Z,5.90
2023-03-16T16:21:35.716Z,6.10
2023-03-16T16:24:33.464Z,6.20
2023-03-16T16:27:30.658Z,6.00
2023-03-16T16:30:31.317Z,6.00
2023-03-16T16:33:34.587Z,5.70
2023-03-16T16:36:32.456Z,5.50
2023-03-16T16:39:29.343Z,5.70
2023-03-16T16:42:26.540Z,5.50
2023-03-16T16:45:26.009Z,5.30
2023-03-16T16:48:48.691Z,5.50
2023-03-16T16:51:46.481Z,5.40
2023-03-16T16:54:43.541Z,5.20
2023-03-16T16:57:41.211Z,4.90
2023-03-16T17:00:39.643Z,4.80
2023-03-16T17:03:36.770Z,4.70
2023-03-16T17:06:33.622Z,4.50
2023-03-16T17:09:31.040Z,4.90
2023-03-16T17:12:29.558Z,5.00
2023-03-16T17:15:30.699Z,4.70
2023-03-16T17:18:27.798Z,4.80
2023-03-16T17:21:28.439Z,4.70
2023-03-16T17:24:26.065Z,4.70
2023-03-16T17:27:31.313Z,4.90
2023-03-16T17:30:30.820Z,4.80
2023-03-16T17:33:28.391Z,4.40
2023-03-16T17:36:25.567Z,4.00
2023-03-16T17:39:31.150Z,3.90
2023-03-16T17:42:28.017Z,4.30
2023-03-16T17:45:28.577Z,4.50
2023-03-16T17:48:25.528Z,4.70
2023-03-16T17:51:25.546Z,4.40
2023-03-16T17:54:23.066Z,4.40
2023-03-16T17:57:27.712Z,4.00
2023-03-16T18:00:34.848Z,3.90
2023-03-16T18:03:31.820Z,4.00
2023-03-16T18:06:30.094Z,4.00
2023-03-16T18:09:28.674Z,3.90
2023-03-16T18:12:25.700Z,3.90
2023-03-16T18:15:27.890Z,3.80
2023-03-16T18:18:31.860Z,3.60
2023-03-16T18:21:28.807Z,3.80
2023-03-16T18:24:26.774Z,3.50
2023-03-16T18:27:24.347Z,3.30
2023-03-16T18:30:21.677Z,3.30
2023-03-16T18:33:30.391Z,3.10
2023-03-16T18:36:34.906Z,3.40
2023-03-16T18:39:32.502Z,3.70
2023-03-16T18:42:29.608Z,3.40
2023-03-16T18:45:27.891Z,3.30
2023-03-16T18:48:34.869Z,3.20
2023-03-16T18:51:32.030Z,3.30
2023-03-16T18:54:32.314Z,3.30
2023-03-16T18:57:31.739Z,3.10
2023-03-16T19:00:29.849Z,3.00
2023-03-16T19:03:34.441Z,2.80
2023-03-16T19:06:35.699Z,2.80
2023-03-16T19:09:33.180Z,3.10
2023-03-16T19:12:30.069Z,2.90
2023-03-16T19:15:30.994Z,2.80
2023-03-16T19:18:29.286Z,2.70
2023-03-16T19:21:26.168Z,2.70
2023-03-16T19:24:29.870Z,2.70
2023-03-16T19:27:36.901Z,3.00
2023-03-16T19:30:35.676Z,2.90
2023-03-16T19:33:32.577Z,2.90
2023-03-16T19:36:31.790Z,2.80
2023-03-16T19:39:28.656Z,2.90
2023-03-16T19:42:36.249Z,2.90
2023-03-16T19:45:33.965Z,2.70
2023-03-16T19:48:34.204Z,2.80
2023-03-16T19:51:32.286Z,2.80
2023-03-16T19:54:35.042Z,2.70
2023-03-16T19:57:31.920Z,2.70
2023-03-16T20:00:30.179Z,2.70
2023-03-16T20:03:29.071Z,2.70
2023-03-16T20:06:26.283Z,2.50
2023-03-16T20:09:23.172Z,2.60
2023-03-16T20:12:27.289Z,2.70
2023-03-16T20:15:32.371Z,2.70
2023-03-16T20:18:29.436Z,2.70
2023-03-16T20:21:27.475Z,2.70
2023-03-16T20:24:24.641Z,2.50
2023-03-16T20:27:24.154Z,2.60
2023-03-16T20:30:21.640Z,2.50
2023-03-16T20:33:25.440Z,2.50
2023-03-16T20:36:23.797Z,2.70
2023-03-16T20:39:21.009Z,2.60
2023-03-16T20:42:21.606Z,2.60
2023-03-16T20:45:28.351Z,2.60
2023-03-16T20:48:27.441Z,2.60
2023-03-16T20:51:24.650Z,2.60
2023-03-16T20:54:21.498Z,2.80
2023-03-16T20:57:27.513Z,2.90
2023-03-16T21:00:38.804Z,2.80
2023-03-16T21:03:35.671Z,2.70
2023-03-16T21:06:33.730Z,2.60
2023-03-16T21:09:33.207Z,2.60
2023-03-16T21:12:33.768Z,2.50
2023-03-16T21:15:33.375Z,2.50
2023-03-16T21:18:30.909Z,2.50
2023-03-16T21:21:28.099Z,2.50
2023-03-16T21:24:24.938Z,2.40
2023-03-16T21:27:29.633Z,2.40
2023-03-16T21:30:35.287Z,2.40
2023-03-16T21:33:38.771Z,2.50
2023-03-16T21:36:35.800Z,2.40
2023-03-16T21:39:33.106Z,2.40
2023-03-16T21:42:29.971Z,2.50
2023-03-16T21:45:27.257Z,2.60
2023-03-16T21:48:37.830Z,2.60
2023-03-16T21:51:34.934Z,2.50
2023-03-16T21:54:31.875Z,2.50
2023-03-16T21:57:28.706Z,2.40
2023-03-16T22:00:32.066Z,2.50
2023-03-16T22:03:50.053Z,2.50
2023-03-16T22:06:47.590Z,2.70
2023-03-16T22:09:44.432Z,2.60
2023-03-16T22:12:41.427Z,2.60
2023-03-16T22:15:42.720Z,2.60
2023-03-16T22:18:39.746Z,2.60
2023-03-16T22:21:39.893Z,2.60
2023-03-16T22:24:37.202Z,2.60
2023-03-16T22:27:34.052Z,2.60
2023-03-16T22:30:31.575Z,2.60
2023-03-16T22:33:32.031Z,2.50
2023-03-16T22:36:30.313Z,2.50
2023-03-16T22:39:27.922Z,2.50
2023-03-16T22:42:37.971Z,2.80
2023-03-16T22:45:35.179Z,2.70
2023-03-16T22:48:32.363Z,2.70
2023-03-16T22:51:37.661Z,2.80
2023-03-16T22:54:34.518Z,2.60
2023-03-16T22:57:32.588Z,2.60
2023-03-16T23:00:29.845Z,2.50
2023-03-16T23:03:26.835Z,2.50
2023-03-16T23:06:27.294Z,2.50
2023-03-16T23:09:24.499Z,2.40
2023-03-16T23:12:22.106Z,2.50
2023-03-16T23:15:25.419Z,2.60
2023-03-16T23:18:26.542Z,2.40
2023-03-16T23:21:25.711Z,2.40
2023-03-16T23:24:23.209Z,2.50
2023-03-16T23:27:22.360Z,2.90
2023-03-16T23:30:25.818Z,2.80
2023-03-16T23:33:23.090Z,2.70
2023-03-16T23:36:24.545Z,2.70
2023-03-16T23:39:21.440Z,2.60
2023-03-16T23:42:18.268Z,2.40
2023-03-16T23:45:30.556Z,2.40
2023-03-16T23:48:28.033Z,2.40
2023-03-16T23:51:30.550Z,2.40
2023-03-16T23:54:30.887Z,2.40
2023-03-16T23:57:27.762Z,2.30
